LiveATC.Net - Listen to live air traffic control over the Internet!
Airport/ARTCC Code
Frequency Search
(e.g., 124.400, 128.75)
Site-wide search
 


Browse Feeds
Top 50 Feeds
Coverage Map
Bad Weather Areas

LiveATC FAQ
Offer LiveATC feed
Contact LiveATC.net
Press Inquiries

LiveATC on iPhone
LiveATC on Android

Windows Phone
Windows 8/10

LiveATC Mobile
(Mobile browser)

ATC Audio Archives
Interesting Recordings

LiveATC Forums

Home Page
About LiveATC.net
Make a Donation
Terms of Use
Privacy Policy

Canadian Air Freqs

AIRMETs/SIGMETs

FAA Airport Status
Nat'l Airspace Status
Arrival Demand Charts


Server Software By:
Icecast.org
Liquidsoap

Select an area of interest:
U.S. Feeds: Class B Airports | Class C Airports | Class D/Other Airports | ARTCC (Centers)
International Feeds: Canada | Europe | Oceania | Asia | South America | North/Central America | Africa
Misc Feeds: HF Feeds
Search by ICAO/IATA airport code:   (e.g., kbos, kjfk, lax, eham, etc.)


Currently Available Live Feeds: 2648
Status Updated: Tue Oct 27 2020 09:33:04 UTC


NOTICE

Unauthorized use prohibited. See LiveATC.net Terms of Service

North and Central America Airport Feeds

 

MDPP App/Dep (Archives)
Puerto Plata, Dominican Republic

Feed Status: UP
Listen in your browser - HTML5 player(in browser, HTML5)
Click here to listen with your own player(launches your MP3 player)

MDPP 270900Z 00000KT 9999 SCT018 SCT300 24/23 Q1014

MDPP Flight Activity (Flightaware)

Listeners: 0 out of 877 total

Puerto Plata Approach/Departure: 119.000

MDPP Ground/Center (Archives)
Puerto Plata, Dominican Republic

Feed Status: UP
Listen in your browser - HTML5 player(in browser, HTML5)
Click here to listen with your own player(launches your MP3 player)

MDPP 270900Z 00000KT 9999 SCT018 SCT300 24/23 Q1014

MDPP Flight Activity (Flightaware)

Listeners: 0 out of 877 total

Puerto Plata Ground: 121.900
Santo Domingo Center: 124.300

MDPP Ground/Tower/Center (Archives)
Puerto Plata, Dominican Republic

Feed Status: UP
Listen in your browser - HTML5 player(in browser, HTML5)
Click here to listen with your own player(launches your MP3 player)

MDPP 270900Z 00000KT 9999 SCT018 SCT300 24/23 Q1014

MDPP Flight Activity (Flightaware)

Listeners: 0 out of 877 total

Puerto Plata Ground: 121.900
Puerto Plata Tower: 118.000
Santo Domingo Center: 124.300

MDPP Tower (Archives)
Puerto Plata, Dominican Republic

Feed Status: UP
Listen in your browser - HTML5 player(in browser, HTML5)
Click here to listen with your own player(launches your MP3 player)

MDPP 270900Z 00000KT 9999 SCT018 SCT300 24/23 Q1014

MDPP Flight Activity (Flightaware)

Listeners: 0 out of 877 total

Puerto Plata Tower: 118.000

MMCU Twr/App (Archives)
Chihuahua, Mexico

Feed Status: UP
Listen in your browser - HTML5 player(in browser, HTML5)
Click here to listen with your own player(launches your MP3 player)

MMCU 270343Z 22010KT 10SM SKC 22/03 A2986

MMCU Flight Activity (Flightaware)

Listeners: 0 out of 877 total

Chihuahua Approach: 121.000
Chihuahua Tower: 118.400

MMGL Twr/App (Archives)
Guadalajara, Mexico

Feed Status: UP
Listen in your browser - HTML5 player(in browser, HTML5)
Click here to listen with your own player(launches your MP3 player)

MMGL 270847Z 00000KT 10SM SCT300 17/15 A3007 RMK SLP059 57011 969 8/009

MMGL Flight Activity (Flightaware)

Listeners: 1 out of 877 total

Guadalajara Approach: 120.800
Guadalajara Tower: 118.100

MMHO App/Dep (Archives)
Hermosillo, Mexico

Feed Status: UP
Listen in your browser - HTML5 player(in browser, HTML5)
Click here to listen with your own player(launches your MP3 player)

MMHO 270540Z 28006KT 10SM SKC 17/M12 A2992 RMK SLP130 52022 938 ISOL CU HZY

MMHO Flight Activity (Flightaware)

Listeners: 0 out of 877 total

Hermosillo Approach/Departure: 121.400

MMHO Info (Archives)
Hermosillo, Mexico

Feed Status: UP
Listen in your browser - HTML5 player(in browser, HTML5)
Click here to listen with your own player(launches your MP3 player)

MMHO 270540Z 28006KT 10SM SKC 17/M12 A2992 RMK SLP130 52022 938 ISOL CU HZY

MMHO Flight Activity (Flightaware)

Listeners: 0 out of 877 total

Hermosillo Info: 122.300

MMHO Tower (Archives)
Hermosillo, Mexico

Feed Status: UP
Listen in your browser - HTML5 player(in browser, HTML5)
Click here to listen with your own player(launches your MP3 player)

MMHO 270540Z 28006KT 10SM SKC 17/M12 A2992 RMK SLP130 52022 938 ISOL CU HZY

MMHO Flight Activity (Flightaware)

Listeners: 0 out of 877 total

Hermosillo Tower: 118.700

MMHO Twr/App (Archives)
Hermosillo, Mexico

Feed Status: UP
Listen in your browser - HTML5 player(in browser, HTML5)
Click here to listen with your own player(launches your MP3 player)

MMHO 270540Z 28006KT 10SM SKC 17/M12 A2992 RMK SLP130 52022 938 ISOL CU HZY

MMHO Flight Activity (Flightaware)

Listeners: 0 out of 877 total

Hermosillo Approach/Departure: 121.400
Hermosillo Info: 122.300
Hermosillo Tower: 118.700

MMLP Twr/App (Archives)
La Paz, Mexico

Feed Status: UP
Listen in your browser - HTML5 player(in browser, HTML5)
Click here to listen with your own player(launches your MP3 player)

MMLP 270545Z 21003KT 10SM SKC 21/14 A2989

MMLP Flight Activity (Flightaware)

Listeners: 0 out of 877 total

La Paz Approach: 120.600
La Paz Tower: 118.100

MMMD App/Dep (Archives)
Merida, Mexico

Feed Status: UP
Listen in your browser - HTML5 player(in browser, HTML5)
Click here to listen with your own player(launches your MP3 player)

MMMD 270847Z 33011KT 6SM BKN015 OVC300 26/24 A2961 RMK SLP038 57031 993 8/507 HZY

MMMD Flight Activity (Flightaware)

Listeners: 0 out of 877 total

Merida Approach: 121.200

MMMD Merida Center (Archives)
Merida, Mexico

Feed Status: UP
Listen in your browser - HTML5 player(in browser, HTML5)
Click here to listen with your own player(launches your MP3 player)

MMMD 270847Z 33011KT 6SM BKN015 OVC300 26/24 A2961 RMK SLP038 57031 993 8/507 HZY

MMMD Flight Activity (Flightaware)

Listeners: 0 out of 877 total

Merida Center: 125.800
Merida Center: 123.750

MMMD Tower (Archives)
Merida, Mexico

Feed Status: UP
Listen in your browser - HTML5 player(in browser, HTML5)
Click here to listen with your own player(launches your MP3 player)

MMMD 270847Z 33011KT 6SM BKN015 OVC300 26/24 A2961 RMK SLP038 57031 993 8/507 HZY

MMMD Flight Activity (Flightaware)

Listeners: 0 out of 877 total

Merida Tower: 118.300

MMMM Tower (Archives)
Morelia, Mexico

Feed Status: UP
Listen in your browser - HTML5 player(in browser, HTML5)
Click here to listen with your own player(launches your MP3 player)

MMMM 270853Z 00000KT 7SM BKN230 11/10 A3013 RMK SLP071 54000 964 8/008 HZY

MMMM Flight Activity (Flightaware)

Listeners: 1 out of 877 total

Morelia Tower: 118.500

MMMX Approach (Archives)
Mexico City, Mexico

Feed Status: UP
Listen in your browser - HTML5 player(in browser, HTML5)
Click here to listen with your own player(launches your MP3 player)

MMMX 270845Z 00000KT 7SM BKN250 13/05 A3022 NOSIG RMK SLP053 57008 961 8/008 HZY

MMMX Flight Activity (Flightaware)

Listeners: 3 out of 877 total

Mexico City Approach: 121.200

MMMX Twr/App (Archives)
Mexico City, Mexico

Feed Status: UP
Listen in your browser - HTML5 player(in browser, HTML5)
Click here to listen with your own player(launches your MP3 player)

MMMX 270845Z 00000KT 7SM BKN250 13/05 A3022 NOSIG RMK SLP053 57008 961 8/008 HZY

MMMX Flight Activity (Flightaware)

Listeners: 4 out of 877 total

Mexico City Approach: 121.200
Mexico City Departure (East): 120.500
Mexico City Departure (West): 129.100
Mexico City Final Approach: 119.750
Mexico City Helicopters: 118.150
Mexico City Terminal: 129.600
Mexico City Tower: 118.550

MMMY Tower/Approach
Monterrey, Mexico

Feed Status: DOWN
Offline since: 2020-09-10 04:46:39 UTC

MMMY 270848Z 27008KT 10SM -DZ BKN025 16/10 A2990 RMK SLP/// 5//// 9// 60005 8/500

Monterrey Approach/Departure: 119.750
Monterrey Tower: 118.100

MMSP Gnd/Twr/App/Center (Archives)
San Luis Potosi, Mexico

Feed Status: UP
Listen in your browser - HTML5 player(in browser, HTML5)
Click here to listen with your own player(launches your MP3 player)

MMSP 270840Z 00000KT 8SM SKC 08/M03 A3012 RMK SLP075 54000 963 FU

MMSP Flight Activity (Flightaware)

Listeners: 0 out of 877 total

AMX Ground Ops: 131.000
Mexico Center (North, Sector 6): 126.000
Mexico Center (Northwest, Sector 7): 123.900
Mexico Center (West, Sector 5): 125.100
Potosi Approach: 127.500
Potosi Tower: 118.900
TAO Ground Ops: 133.600

MMTC Twr/App/Center (Archives)
Torreon, Mexico

Feed Status: UP
Listen in your browser - HTML5 player(in browser, HTML5)
Click here to listen with your own player(launches your MP3 player)

MMTC 270249Z 00000KT 10SM SKC 29/05 A2983 RMK SLP003 50013 967

MMTC Flight Activity (Flightaware)

Listeners: 0 out of 877 total

Mazatlan Center: 124.200
Mazatlan Center: 124.400
Mazatlan Center: 128.000
Mexico Center: 123.900
Monterrey Center: 125.600
Monterrey Center: 125.425
Monterrey Center: 127.400
Torreon Approach: 119.500
Torreon Tower: 118.500

MMTJ Approach (Archives)
Tijuana, Mexico

Feed Status: UP
Listen in your browser - HTML5 player(in browser, HTML5)
Click here to listen with your own player(launches your MP3 player)

MMTJ 270843Z 08006KT 8SM SKC 11/M16 A3007 RMK SLP/// 5//// 9// MSG TX MMMX

MMTJ Flight Activity (Flightaware)

Listeners: 0 out of 877 total

Tijuana Approach: 120.300

MMTJ Twr/Ramp (Archives)
Tijuana, Mexico

Feed Status: UP
Listen in your browser - HTML5 player(in browser, HTML5)
Click here to listen with your own player(launches your MP3 player)

MMTJ 270843Z 08006KT 8SM SKC 11/M16 A3007 RMK SLP/// 5//// 9// MSG TX MMMX

MMTJ Flight Activity (Flightaware)

Listeners: 0 out of 877 total

Tijuana Ramp: 126.100
Tijuana Tower: 118.100

MUFH Havana FIR (App/Center) (Archives)
Havana, Cuba

Feed Status: UP
Listen in your browser - HTML5 player(in browser, HTML5)
Click here to listen with your own player(launches your MP3 player)

MUFH Flight Activity (Flightaware)

Listeners: 0 out of 877 total

Hava Approach: 120.300
Havana Center: 120.250
Havana Center: 123.700
Havana Center: 124.550
Havana Center: 133.700
Havana Center: 135.100

TBPB Gnd/Twr/Radar/Center
Bridgetown, Barbados

Feed Status: DOWN
Offline since: 2020-10-27 02:00:23 UTC

TBPB 270900Z 08011KT 9999 -RA SCT016 SCT036 28/24 Q1011 NOSIG

Adams Approach/Departure: 129.350
Adams Approach/Departure: 128.850
Adams Ground: 121.900
Adams Tower: 118.700
Piarco Center: 123.700

TXKF Tower/Ground (Archives)
Hamilton, Bermuda

Feed Status: UP
Listen in your browser - HTML5 player(in browser, HTML5)
Click here to listen with your own player(launches your MP3 player)

TXKF 270907Z 22009KT 9999 VCSH SCT015 SCT078 24/23 Q1019

TXKF Flight Activity (Flightaware)

Listeners: 0 out of 877 total

Bermuda CTAF: 122.800
Bermuda Ground/Clearance: 124.500
Bermuda Tower: 118.100

ZNY Bermuda Sector (Archives)
Hamilton, Bermuda

Feed Status: UP
Listen in your browser - HTML5 player(in browser, HTML5)
Click here to listen with your own player(launches your MP3 player)

TXKF 270907Z 22009KT 9999 VCSH SCT015 SCT078 24/23 Q1019

TXKF Flight Activity (Flightaware)

Listeners: 0 out of 877 total

New York Approach (Bermuda Sector) : 119.100
New York Center (Bermuda Sector): 128.500

MHLC Gnd/Twr/Center (Archives)
La Ceiba, Honduras

Feed Status: UP
Listen in your browser - HTML5 player(in browser, HTML5)
Click here to listen with your own player(launches your MP3 player)

MHLC 262200Z 00000KT 9999 FEW025 BKN080 29/24 Q1007 A2974 NOSIG

MHLC Flight Activity (Flightaware)

Listeners: 0 out of 877 total

CENAMER: 123.900
CENAMER: 124.300
Goloson Ground: 121.900
Goloson Tower: 118.500
La Ceiba Radio: 128.900

MHLM Gnd/Twr/App
San Pedro Sula, Honduras

Feed Status: DOWN
Offline since: 2020-08-29 13:58:40 UTC

MHLM 270100Z 07004KT 9999 FEW026 BKN080 28/22 Q1008 A2977 NOSIG

La Mesa Ground: 121.900
La Mesa Tower: 118.200
San Pedro Sula Approach: 119.700

MHTG ATIS (Archives)
Tegucigalpa, Honduras

Feed Status: UP
Listen in your browser - HTML5 player(in browser, HTML5)
Click here to listen with your own player(launches your MP3 player)

MHTG 270900Z 00000KT 9999 FEW028 SCT250 19/19 Q1015 A2997 NOSIG

MHTG Flight Activity (Flightaware)

Listeners: 0 out of 877 total

Toncontin ATIS: 127.750

MHTG Gnd/Twr/App/Ctr/Ops (Archives)
Tegucigalpa, Honduras

Feed Status: UP
Listen in your browser - HTML5 player(in browser, HTML5)
Click here to listen with your own player(launches your MP3 player)

MHTG 270900Z 00000KT 9999 FEW028 SCT250 19/19 Q1015 A2997 NOSIG

MHTG Flight Activity (Flightaware)

Listeners: 0 out of 877 total

American Airlines Ops: 130.700
ARINC ACARS: 131.550
Cenamer Center: 123.900
Cenamer Center: 124.300
Cenamer Center: 124.100
CMP Ops: 129.925
Continental Airlines Ops: 129.925
FAH Ground: 122.900
Taca Ops: 131.300
Taca Ops Sal: 130.300
Tecnologias Unidas: 133.000
Tegucigalpa RDO: 126.700
Toncontin Approach: 119.100
Toncontin Ground: 121.900
Toncontin Tower: 118.700

MROC Del/Gnd/Twr (Archives)
San Jose, Costa Rica

Feed Status: UP
Listen in your browser - HTML5 player(in browser, HTML5)
Click here to listen with your own player(launches your MP3 player)

MROC 270900Z 08003KT 9999 FEW010 20/20 A2996 NOSIG

MROC Flight Activity (Flightaware)

Listeners: 0 out of 877 total

Coco Clearance Delivery/Ground: 121.900
Coco Tower: 118.600

MROC Del/Gnd/Twr/App/Center/Misc (Archives)
San Jose, Costa Rica

Feed Status: UP
Listen in your browser - HTML5 player(in browser, HTML5)
Click here to listen with your own player(launches your MP3 player)

MROC 270900Z 08003KT 9999 FEW010 20/20 A2996 NOSIG

MROC Flight Activity (Flightaware)

Listeners: 4 out of 877 total

Central American Center (CENAMER Control): 124.100
Coco Center (Control over CR Airspace): 119.600
Coco Clearance Delivery: 121.300
Coco Ground: 121.900
Coco Terminal Control: 120.500
Coco Tower: 118.600
Coco UNICOM: 126.800
SYQ Ground: 121.700
SYQ Tower: 118.300

MSLP Gnd/Twr/App (Archives)
San Salvador, El Salvador

Feed Status: UP
Listen in your browser - HTML5 player(in browser, HTML5)
Click here to listen with your own player(launches your MP3 player)

MSLP 270850Z VRB02KT 9999 FEW020 24/23 Q1009 A2981 NOSIG

MSLP Flight Activity (Flightaware)

Listeners: 0 out of 877 total

Comalapa Ground: 121.700
Comalapa Tower: 118.000
Compalapa Approach: 119.900

MSLP Gnd/Twr/App/Center (Archives)
San Salvador, El Salvador

Feed Status: UP
Listen in your browser - HTML5 player(in browser, HTML5)
Click here to listen with your own player(launches your MP3 player)

MSLP 270850Z VRB02KT 9999 FEW020 24/23 Q1009 A2981 NOSIG

MSLP Flight Activity (Flightaware)

Listeners: 0 out of 877 total

Avianca Ops: 123.500
CCA: 119.300
CENAMER: 124.100
Comalapa Authorizations: 121.250
Comalapa Departure: 123.900
Comalapa Ground: 121.700
Comalapa Tower: 118.000
Compalapa Approach: 119.900
Ilopango Tower: 118.300
TACA Ops: 130.500

MSSS Tower
San Salvador, El Salvador

Feed Status: DOWN
Offline since: 2020-10-25 22:25:06 UTC

MSSS 262350Z 19006KT 9999 FEW017 24/24 Q1012 A2989

Ilopango Tower: 118.300